Time;durP1;ratioP1;P1;durP2;ratioP2;P2;SDS_P1;SDS_P2;PMS_P1;PMS_P2;Temp;Humidity;BMP_temperature;BMP_pressure;BME280_temperature;BME280_humidity;BME280_pressure;Samples;Min_cycle;Max_cycle;Signal;HPM_P1;HPM_P2
2022/01/19 00:00:18;;;;;;;1.58;1.48;;;21.00;53.90;;;;;;5051605;28;20572;-64
2022/01/19 00:02:44;;;;;;;2.42;1.50;;;21.00;54.80;;;;;;5052193;28;20397;-64
2022/01/19 00:05:11;;;;;;;1.30;1.20;;;21.00;53.80;;;;;;5050648;28;20036;-64
2022/01/19 00:07:37;;;;;;;2.05;1.23;;;21.00;53.90;;;;;;5035200;28;20019;-64
2022/01/19 00:10:05;;;;;;;1.50;1.40;;;21.00;53.90;;;;;;5051432;28;20021;-64
2022/01/19 00:12:34;;;;;;;1.30;1.20;;;21.00;53.90;;;;;;5051601;28;20016;-64
2022/01/19 00:14:59;;;;;;;1.40;1.27;;;21.00;54.00;;;;;;5051145;28;20124;-64
2022/01/19 00:17:25;;;;;;;1.63;1.52;;;21.00;54.00;;;;;;5050814;28;20166;-64
2022/01/19 00:19:50;;;;;;;2.05;1.50;;;21.00;54.00;;;;;;5052559;28;20025;-64
2022/01/19 00:22:16;;;;;;;1.40;1.30;;;21.00;54.00;;;;;;5051057;28;20021;-64
2022/01/19 00:24:43;;;;;;;1.67;1.58;;;21.00;54.00;;;;;;5051268;28;20112;-64
2022/01/19 00:27:09;;;;;;;1.65;1.55;;;21.00;54.00;;;;;;5050933;28;20044;-64
2022/01/19 00:29:35;;;;;;;1.70;1.27;;;21.00;54.00;;;;;;5051003;28;20025;-64
2022/01/19 00:32:01;;;;;;;1.52;1.40;;;21.00;54.10;;;;;;5052054;28;20032;-64
2022/01/19 00:34:28;;;;;;;1.58;1.48;;;21.00;54.00;;;;;;5052264;28;20041;-64
2022/01/19 00:36:54;;;;;;;1.45;1.35;;;21.00;54.10;;;;;;5052170;28;20020;-64
2022/01/19 00:39:19;;;;;;;1.58;1.48;;;21.00;54.10;;;;;;5039893;28;20053;-64
2022/01/19 00:41:45;;;;;;;1.52;1.42;;;21.00;54.10;;;;;;5032429;28;20527;-64
2022/01/19 00:44:11;;;;;;;2.42;1.25;;;21.00;54.20;;;;;;5030885;28;20492;-64
2022/01/19 00:46:36;;;;;;;1.45;1.35;;;21.00;54.20;;;;;;5044443;28;20396;-64
2022/01/19 00:49:02;;;;;;;1.40;1.30;;;21.00;54.20;;;;;;5051993;28;20025;-64
2022/01/19 00:51:27;;;;;;;1.50;1.40;;;21.00;54.20;;;;;;5050823;28;20106;-64
2022/01/19 00:53:53;;;;;;;1.75;1.60;;;21.00;54.20;;;;;;5052143;28;20081;-64
2022/01/19 00:56:19;;;;;;;1.35;1.25;;;21.00;54.30;;;;;;5051941;28;20083;-64
2022/01/19 00:58:44;;;;;;;2.08;1.40;;;21.00;54.30;;;;;;5052184;28;20029;-64
2022/01/19 01:01:10;;;;;;;1.30;1.20;;;21.00;54.30;;;;;;5051778;28;20025;-64
2022/01/19 01:03:35;;;;;;;1.67;1.52;;;21.00;54.30;;;;;;5051840;28;20029;-64
2022/01/19 01:06:01;;;;;;;1.55;1.45;;;21.00;54.40;;;;;;5052112;28;20024;-64
2022/01/19 01:08:27;;;;;;;1.42;1.30;;;21.00;54.40;;;;;;5052103;28;20104;-64
2022/01/19 01:10:52;;;;;;;1.40;1.30;;;21.00;54.40;;;;;;5051881;28;20118;-64
2022/01/19 01:15:25;;;;;;;1.75;1.45;;;21.00;54.40;;;;;;5051936;28;20468;-64
2022/01/19 01:16:31;;;;;;;1.67;1.58;;;21.00;54.50;;;;;;5053523;28;20108;-64
2022/01/19 01:18:57;;;;;;;1.73;1.52;;;21.00;54.50;;;;;;5055038;28;20036;-64
2022/01/19 01:21:23;;;;;;;1.42;1.33;;;21.00;54.60;;;;;;5055739;28;20429;-64
2022/01/19 01:23:49;;;;;;;1.40;1.30;;;21.00;54.60;;;;;;5055693;28;20083;-64
2022/01/19 01:26:14;;;;;;;1.35;1.20;;;21.00;54.60;;;;;;5055368;28;20040;-64
2022/01/19 01:28:40;;;;;;;1.30;1.20;;;21.00;54.60;;;;;;5054249;28;20057;-64
2022/01/19 01:31:07;;;;;;;1.40;1.30;;;21.00;54.60;;;;;;5054282;28;20060;-64
2022/01/19 01:33:33;;;;;;;1.40;1.30;;;21.00;54.60;;;;;;5055355;28;20025;-64
2022/01/19 01:35:59;;;;;;;1.38;1.27;;;21.00;54.60;;;;;;5054312;28;20036;-64
2022/01/19 01:38:25;;;;;;;2.00;1.60;;;21.00;54.60;;;;;;5050638;28;20025;-64
2022/01/19 01:40:50;;;;;;;1.42;1.33;;;21.00;54.70;;;;;;5035576;28;20067;-64
2022/01/19 01:43:16;;;;;;;1.77;1.67;;;21.00;54.70;;;;;;5017628;28;20033;-64
2022/01/19 01:45:43;;;;;;;1.58;1.48;;;21.00;54.70;;;;;;5041043;28;20144;-64
2022/01/19 01:48:13;;;;;;;1.48;1.27;;;21.00;54.70;;;;;;5055193;28;20108;-64
2022/01/19 01:53:26;;;;;;;1.90;1.70;;;21.00;54.80;;;;;;5055215;28;20518;-64
2022/01/19 01:56:02;;;;;;;1.17;1.10;;;21.00;54.80;;;;;;5054162;28;20048;-64
2022/01/19 01:58:30;;;;;;;1.88;1.30;;;21.10;54.80;;;;;;5053706;28;20032;-64
2022/01/19 02:00:55;;;;;;;1.50;1.40;;;21.00;54.80;;;;;;5054131;28;20443;-64
2022/01/19 02:03:21;;;;;;;1.50;1.40;;;21.00;54.80;;;;;;5053592;28;20057;-64
2022/01/19 02:08:36;;;;;;;1.40;1.30;;;21.00;54.80;;;;;;5053698;28;20123;-64
2022/01/19 02:16:29;;;;;;;1.95;1.27;;;21.00;54.90;;;;;;5053848;28;20090;-64
2022/01/19 02:21:46;;;;;;;1.48;1.38;;;21.00;55.00;;;;;;5053691;28;20463;-64
2022/01/19 02:24:17;;;;;;;1.50;1.40;;;21.00;55.00;;;;;;5054461;28;20025;-64
2022/01/19 02:40:32;;;;;;;5.53;1.33;;;20.90;55.10;;;;;;5034242;28;20465;-64
2022/01/19 02:50:37;;;;;;;1.60;1.50;;;20.90;55.10;;;;;;5053996;28;20449;-64
2022/01/19 02:53:02;;;;;;;2.53;1.63;;;21.00;55.20;;;;;;5052908;28;20024;-64
2022/01/19 02:55:30;;;;;;;1.70;1.60;;;20.90;55.10;;;;;;5052641;28;20022;-64
2022/01/19 02:57:56;;;;;;;1.00;1.00;;;21.00;55.20;;;;;;5052640;28;20017;-64
2022/01/19 03:08:50;;;;;;;1.50;1.40;;;20.90;55.20;;;;;;5053737;28;20100;-64
2022/01/19 03:11:17;;;;;;;1.50;1.40;;;21.00;55.40;;;;;;5053609;28;20021;-64
2022/01/19 03:13:44;;;;;;;2.15;1.20;;;21.00;55.30;;;;;;5052263;28;20082;-64
2022/01/19 03:16:10;;;;;;;1.40;1.30;;;21.00;55.30;;;;;;5052504;28;20100;-64
2022/01/19 03:18:35;;;;;;;1.88;1.65;;;21.00;55.30;;;;;;5053602;28;20103;-64
2022/01/19 03:21:01;;;;;;;1.92;1.27;;;21.00;55.30;;;;;;5052416;28;20116;-64
2022/01/19 03:23:27;;;;;;;1.50;1.40;;;21.00;55.30;;;;;;5035540;28;20024;-65
2022/01/19 03:25:53;;;;;;;1.38;1.27;;;20.90;55.30;;;;;;5051991;28;20057;-64
2022/01/19 03:28:19;;;;;;;1.33;1.23;;;21.00;55.30;;;;;;5053110;28;20064;-64
2022/01/19 03:30:45;;;;;;;1.50;1.40;;;20.90;55.30;;;;;;5052148;28;20495;-64
2022/01/19 03:33:11;;;;;;;1.30;1.20;;;20.90;55.30;;;;;;5052198;28;20454;-64
2022/01/19 03:35:38;;;;;;;1.60;1.50;;;20.90;55.30;;;;;;5035346;28;20477;-64
2022/01/19 03:38:05;;;;;;;1.42;1.33;;;20.90;55.30;;;;;;5033867;28;20072;-64
2022/01/19 03:40:30;;;;;;;1.60;1.50;;;20.90;55.30;;;;;;5032819;28;20017;-64
2022/01/19 03:42:56;;;;;;;1.55;1.10;;;20.90;55.30;;;;;;5033258;28;20022;-64
2022/01/19 03:45:22;;;;;;;1.83;1.30;;;20.90;55.30;;;;;;5034860;28;20028;-64
2022/01/19 03:47:55;;;;;;;1.70;1.35;;;20.90;55.30;;;;;;5051804;28;20586;-64
2022/01/19 03:50:21;;;;;;;1.30;1.20;;;20.90;55.30;;;;;;5051939;28;20029;-64
2022/01/19 03:52:46;;;;;;;1.65;1.52;;;20.90;55.30;;;;;;5052836;28;20029;-64
2022/01/19 03:55:12;;;;;;;1.23;1.20;;;20.90;55.40;;;;;;5052613;28;20100;-64
2022/01/19 03:57:38;;;;;;;1.40;1.30;;;20.90;55.30;;;;;;5052564;28;20021;-64
2022/01/19 04:00:05;;;;;;;1.40;1.30;;;20.90;55.40;;;;;;5051762;28;20039;-64
2022/01/19 04:02:31;;;;;;;1.52;1.30;;;20.90;55.40;;;;;;5051344;28;20474;-64
2022/01/19 04:05:06;;;;;;;1.30;1.20;;;20.90;55.40;;;;;;5051303;28;20056;-64
2022/01/19 04:07:32;;;;;;;1.10;1.10;;;20.90;55.40;;;;;;5051501;28;20017;-64
2022/01/19 04:09:57;;;;;;;1.30;1.20;;;20.90;55.50;;;;;;5052550;28;20375;-64
2022/01/19 04:13:10;;;;;;;1.40;1.30;;;20.90;55.40;;;;;;5051528;28;20021;-64
2022/01/19 04:15:12;;;;;;;1.40;1.30;;;20.90;55.50;;;;;;5054612;28;20384;-64
2022/01/19 04:17:44;;;;;;;1.00;1.00;;;20.90;55.50;;;;;;5052453;28;20044;-64
2022/01/19 04:20:10;;;;;;;1.30;1.20;;;20.90;55.50;;;;;;5052651;28;20029;-64
2022/01/19 04:22:36;;;;;;;1.20;1.10;;;20.90;56.60;;;;;;5052504;28;20021;-64
2022/01/19 04:25:02;;;;;;;1.30;1.20;;;20.90;55.50;;;;;;5052054;28;20076;-64
2022/01/19 04:32:31;;;;;;;1.40;1.30;;;20.90;55.50;;;;;;5051099;28;20056;-64
2022/01/19 04:34:58;;;;;;;1.25;1.15;;;20.90;55.50;;;;;;5035738;28;20079;-64
2022/01/19 04:37:35;;;;;;;1.27;1.17;;;20.90;55.60;;;;;;5052049;28;20027;-64
2022/01/19 04:46:00;;;;;;;1.20;1.10;;;20.90;55.60;;;;;;5035332;28;20024;-65
2022/01/19 05:04:54;;;;;;;1.30;1.10;;;20.90;55.80;;;;;;4980462;28;20606;-64
2022/01/19 05:15:06;;;;;;;1.10;1.10;;;20.90;55.80;;;;;;5008723;28;20498;-64
2022/01/19 05:17:32;;;;;;;1.45;1.35;;;20.90;55.80;;;;;;4990734;28;20053;-64
2022/01/19 05:19:57;;;;;;;2.55;1.15;;;20.90;55.90;;;;;;4988287;28;20094;-65
2022/01/19 05:22:23;;;;;;;2.80;1.20;;;20.90;55.80;;;;;;5000624;28;20033;-64
2022/01/19 05:24:49;;;;;;;1.67;1.55;;;20.90;55.70;;;;;;5009120;28;20034;-64
2022/01/19 05:27:15;;;;;;;3.35;1.20;;;20.90;55.70;;;;;;5009971;28;20125;-64
2022/01/19 05:29:40;;;;;;;1.17;1.17;;;20.90;55.70;;;;;;4993727;28;20467;-64
2022/01/19 05:32:06;;;;;;;1.08;1.02;;;20.90;55.70;;;;;;5007954;28;20034;-64
2022/01/19 05:34:32;;;;;;;1.25;1.10;;;20.90;55.70;;;;;;5007670;28;20037;-64
2022/01/19 05:36:58;;;;;;;3.03;1.42;;;20.90;55.70;;;;;;4965318;28;20074;-64
2022/01/19 05:39:24;;;;;;;1.48;1.17;;;20.90;55.70;;;;;;5024516;28;20055;-64
2022/01/19 05:41:50;;;;;;;2.10;1.10;;;20.90;55.70;;;;;;5041286;28;20029;-64
2022/01/19 05:44:15;;;;;;;2.50;1.33;;;20.90;55.70;;;;;;5037530;28;20022;-64
2022/01/19 05:46:41;;;;;;;1.52;1.25;;;20.90;55.70;;;;;;5039378;28;20495;-64
2022/01/19 05:49:07;;;;;;;3.53;1.42;;;20.90;55.70;;;;;;5039852;28;20017;-64
2022/01/19 05:51:32;;;;;;;1.60;1.48;;;20.90;55.70;;;;;;5036170;28;20037;-64
2022/01/19 05:53:58;;;;;;;1.10;1.00;;;20.90;55.80;;;;;;5037935;28;20033;-64
2022/01/19 05:56:24;;;;;;;1.65;1.30;;;20.90;55.70;;;;;;5037301;28;20101;-64
2022/01/19 05:58:49;;;;;;;2.20;1.35;;;20.90;55.80;;;;;;5037611;28;20081;-64
2022/01/19 06:01:15;;;;;;;1.75;1.20;;;20.90;55.80;;;;;;5036041;28;20028;-64
2022/01/19 06:03:40;;;;;;;2.08;1.45;;;20.90;55.80;;;;;;5034895;28;20488;-64
2022/01/19 06:06:06;;;;;;;1.77;1.38;;;20.90;55.80;;;;;;5034590;28;20098;-64
2022/01/19 06:08:43;;;;;;;2.30;1.35;;;20.90;55.80;;;;;;5035171;28;20583;-64
2022/01/19 06:11:09;;;;;;;1.58;1.30;;;20.90;55.80;;;;;;5035003;28;20020;-64
2022/01/19 06:13:35;;;;;;;2.45;1.55;;;20.90;55.80;;;;;;5034782;28;20037;-64
2022/01/19 06:16:01;;;;;;;1.67;1.30;;;20.90;55.90;;;;;;5033660;28;20042;-64
2022/01/19 06:18:26;;;;;;;3.63;1.33;;;20.90;55.80;;;;;;5033595;28;20480;-64
2022/01/19 06:20:52;;;;;;;0.90;0.90;;;20.90;55.90;;;;;;5034277;28;20067;-64
2022/01/19 06:23:17;;;;;;;2.15;1.15;;;20.80;55.80;;;;;;5034856;28;20033;-64
2022/01/19 06:25:43;;;;;;;1.30;1.20;;;20.90;55.90;;;;;;5034536;28;20029;-64
2022/01/19 06:28:09;;;;;;;1.48;1.13;;;20.90;55.90;;;;;;5033191;28;20455;-64
2022/01/19 06:30:35;;;;;;;0.95;0.95;;;20.80;55.80;;;;;;5033315;28;20022;-64
2022/01/19 06:33:00;;;;;;;1.17;1.10;;;20.90;55.90;;;;;;5034776;28;20073;-64
2022/01/19 06:35:26;;;;;;;1.23;1.10;;;20.90;55.90;;;;;;5033140;28;20053;-64
2022/01/19 06:37:52;;;;;;;1.17;1.08;;;20.80;55.90;;;;;;5033129;28;20376;-64
2022/01/19 06:40:18;;;;;;;2.25;1.30;;;20.90;56.00;;;;;;5034247;28;20054;-64
2022/01/19 06:42:44;;;;;;;3.70;1.17;;;20.80;55.80;;;;;;5033029;28;20026;-64
2022/01/19 06:45:10;;;;;;;1.63;1.02;;;20.80;55.90;;;;;;5034656;28;20024;-64
2022/01/19 06:47:36;;;;;;;0.90;0.90;;;20.80;55.90;;;;;;5033683;28;20047;-64
2022/01/19 06:50:02;;;;;;;1.10;1.00;;;20.80;55.90;;;;;;5032700;28;20049;-64
2022/01/19 06:52:28;;;;;;;1.38;1.33;;;20.80;55.90;;;;;;5045798;28;20014;-64
2022/01/19 06:54:53;;;;;;;2.45;1.17;;;20.80;55.90;;;;;;5048681;28;20044;-64
2022/01/19 06:57:19;;;;;;;2.47;1.10;;;20.80;55.90;;;;;;5034587;28;20025;-64
2022/01/19 06:59:45;;;;;;;1.20;1.08;;;20.90;56.00;;;;;;5032766;28;20017;-64
2022/01/19 07:02:10;;;;;;;1.25;1.15;;;20.80;55.90;;;;;;5033700;28;20037;-64
2022/01/19 07:04:36;;;;;;;1.05;0.90;;;20.80;55.90;;;;;;5048300;28;20025;-64
2022/01/19 07:07:03;;;;;;;1.30;1.20;;;20.80;55.90;;;;;;5037151;28;20018;-65
2022/01/19 07:09:29;;;;;;;2.97;1.38;;;20.90;55.90;;;;;;5046342;28;20020;-65
2022/01/19 07:11:55;;;;;;;1.88;1.77;;;20.90;55.70;;;;;;5024560;28;20026;-65
2022/01/19 07:14:20;;;;;;;2.40;1.40;;;20.80;55.40;;;;;;5043352;28;20033;-65
2022/01/19 07:16:46;;;;;;;1.50;1.40;;;20.80;55.30;;;;;;5015998;28;20100;-65
2022/01/19 07:19:13;;;;;;;2.20;1.73;;;20.70;55.20;;;;;;5037121;28;20028;-65
2022/01/19 07:21:39;;;;;;;1.50;1.40;;;20.70;55.20;;;;;;5045724;28;20028;-65
2022/01/19 07:24:05;;;;;;;2.75;1.40;;;20.70;55.20;;;;;;5044272;28;20495;-65
2022/01/19 07:26:31;;;;;;;1.63;1.52;;;20.70;55.20;;;;;;5020979;28;20021;-65
2022/01/19 07:28:56;;;;;;;3.78;1.80;;;20.60;55.10;;;;;;5049249;28;20056;-65
2022/01/19 07:31:22;;;;;;;1.80;1.70;;;20.60;55.10;;;;;;5037144;28;20476;-65
2022/01/19 07:33:48;;;;;;;1.70;1.60;;;20.60;55.00;;;;;;5042963;28;20017;-65
2022/01/19 07:36:15;;;;;;;2.88;1.52;;;20.60;55.00;;;;;;5043992;28;20056;-65
2022/01/19 07:38:41;;;;;;;2.08;1.50;;;20.50;54.90;;;;;;5046242;28;20033;-66
2022/01/19 07:41:06;;;;;;;1.70;1.58;;;20.50;54.90;;;;;;5037514;28;20032;-66
2022/01/19 07:43:32;;;;;;;3.03;1.80;;;20.50;54.90;;;;;;5052634;28;20021;-66
2022/01/19 07:45:58;;;;;;;4.43;2.00;;;20.50;54.90;;;;;;5043455;28;20010;-66
2022/01/19 07:48:23;;;;;;;4.47;2.10;;;20.50;55.00;;;;;;5032766;28;20032;-66
2022/01/19 07:50:49;;;;;;;2.97;1.38;;;20.50;55.00;;;;;;5032972;28;20021;-66
2022/01/19 07:53:15;;;;;;;3.47;1.90;;;20.50;55.00;;;;;;5032971;28;20029;-66
2022/01/19 07:55:42;;;;;;;4.47;2.17;;;20.50;54.90;;;;;;5031630;28;20403;-66
2022/01/19 07:58:08;;;;;;;5.82;2.08;;;20.50;54.90;;;;;;5031694;28;20091;-67
2022/01/19 08:00:35;;;;;;;5.50;1.83;;;20.50;54.90;;;;;;5037373;28;20083;-66
2022/01/19 08:03:00;;;;;;;4.82;2.40;;;20.50;54.90;;;;;;5038237;28;20025;-66
2022/01/19 08:05:26;;;;;;;4.22;1.88;;;20.40;54.80;;;;;;5048035;28;20025;-67
2022/01/19 08:07:51;;;;;;;5.72;1.80;;;20.50;54.90;;;;;;5051214;28;20051;-66
2022/01/19 08:10:17;;;;;;;4.97;1.80;;;20.40;54.80;;;;;;5031452;28;20028;-66
2022/01/19 08:12:43;;;;;;;4.80;2.08;;;20.40;54.70;;;;;;5032773;28;20017;-66
2022/01/19 08:15:09;;;;;;;4.07;2.03;;;20.50;54.80;;;;;;5032523;28;20087;-66
2022/01/19 08:17:35;;;;;;;4.63;2.10;;;20.50;54.90;;;;;;5042510;28;20467;-67
2022/01/19 08:20:01;;;;;;;2.72;1.75;;;20.50;54.80;;;;;;5051330;28;20096;-66
2022/01/19 08:22:26;;;;;;;5.78;1.80;;;20.40;55.70;;;;;;5052578;28;20047;-66
2022/01/19 08:24:52;;;;;;;5.38;2.13;;;20.50;54.70;;;;;;5050349;28;20071;-67
2022/01/19 08:27:17;;;;;;;4.07;2.25;;;20.40;54.70;;;;;;5051241;28;20037;-66
2022/01/19 08:29:43;;;;;;;4.47;2.33;;;20.40;54.70;;;;;;5051126;28;20028;-66
2022/01/19 08:32:09;;;;;;;4.65;2.30;;;20.40;54.70;;;;;;5034158;28;20074;-66
2022/01/19 08:34:35;;;;;;;3.88;2.08;;;20.40;54.70;;;;;;5024349;28;20071;-66
2022/01/19 08:37:00;;;;;;;3.63;2.10;;;20.40;54.70;;;;;;5031171;28;20423;-66
2022/01/19 08:39:26;;;;;;;3.13;2.08;;;20.40;54.60;;;;;;5031082;28;20037;-66
2022/01/19 08:41:52;;;;;;;5.90;2.20;;;20.40;54.70;;;;;;5031132;28;20033;-66
2022/01/19 08:44:18;;;;;;;6.70;1.95;;;20.40;54.60;;;;;;5030867;28;20400;-67
2022/01/19 08:46:44;;;;;;;4.85;2.20;;;20.40;54.60;;;;;;5030726;28;20033;-66
2022/01/19 08:49:11;;;;;;;5.53;2.00;;;20.40;54.60;;;;;;5014672;28;20030;-66
2022/01/19 08:51:36;;;;;;;5.10;1.92;;;20.40;54.60;;;;;;5030978;28;20102;-66
2022/01/19 08:54:02;;;;;;;4.25;1.80;;;20.40;54.60;;;;;;5031094;28;20499;-67
2022/01/19 08:56:28;;;;;;;2.22;1.38;;;20.40;54.60;;;;;;5031100;28;20112;-66
2022/01/19 08:58:53;;;;;;;4.18;2.10;;;20.40;54.60;;;;;;5030903;28;20025;-66
2022/01/19 09:01:19;;;;;;;3.15;2.05;;;20.40;54.60;;;;;;5030673;28;20116;-66
2022/01/19 09:03:45;;;;;;;2.72;1.73;;;20.40;54.60;;;;;;5032077;28;20072;-66
2022/01/19 09:06:10;;;;;;;4.95;1.70;;;20.40;54.60;;;;;;5032041;28;20034;-66
2022/01/19 09:08:36;;;;;;;5.35;1.63;;;20.40;54.60;;;;;;5040536;28;20382;-66
2022/01/19 09:11:02;;;;;;;4.50;1.85;;;20.40;54.60;;;;;;5050580;28;20029;-66
2022/01/19 09:13:28;;;;;;;5.20;1.77;;;20.40;54.50;;;;;;5050767;28;20027;-66
2022/01/19 09:15:54;;;;;;;2.00;1.70;;;20.30;54.50;;;;;;5051789;28;20025;-66
2022/01/19 09:18:19;;;;;;;3.63;1.77;;;20.40;54.60;;;;;;5050756;28;20124;-66
2022/01/19 09:20:45;;;;;;;3.00;1.65;;;20.30;54.40;;;;;;5051899;28;20108;-66
2022/01/19 09:23:11;;;;;;;3.80;1.80;;;20.30;54.50;;;;;;5034102;28;20021;-67
2022/01/19 09:25:37;;;;;;;3.75;1.92;;;20.40;54.50;;;;;;5050541;28;20033;-66
2022/01/19 09:28:03;;;;;;;3.63;1.88;;;20.40;54.40;;;;;;5051027;28;20076;-66
2022/01/19 09:30:29;;;;;;;2.22;1.50;;;20.30;54.40;;;;;;5051810;28;20055;-66
2022/01/19 09:33:20;;;;;;;2.92;1.30;;;20.40;54.40;;;;;;5051751;28;20024;-67
2022/01/19 09:38:37;;;;;;;3.60;2.08;;;20.30;54.40;;;;;;5050784;28;20091;-66
2022/01/19 09:41:03;;;;;;;3.13;1.50;;;20.40;54.30;;;;;;5034374;28;20022;-66
2022/01/19 09:43:28;;;;;;;3.58;1.70;;;20.30;54.40;;;;;;5033817;28;20092;-67
2022/01/19 09:45:55;;;;;;;2.15;1.52;;;20.30;54.40;;;;;;5035513;28;20022;-66
2022/01/19 09:48:21;;;;;;;1.65;1.52;;;20.30;54.40;;;;;;5034144;28;20774;-67
2022/01/19 09:50:47;;;;;;;2.97;1.42;;;20.30;54.30;;;;;;5034215;28;20036;-66
2022/01/19 09:53:12;;;;;;;3.00;1.73;;;20.30;54.30;;;;;;5034149;28;20018;-67
2022/01/19 09:55:38;;;;;;;2.25;1.35;;;20.30;54.30;;;;;;5035286;28;20030;-66
2022/01/19 09:58:05;;;;;;;2.05;1.45;;;20.30;54.30;;;;;;5033508;28;20033;-67
2022/01/19 10:00:30;;;;;;;1.95;1.58;;;20.30;54.30;;;;;;5017606;28;20029;-66
2022/01/19 10:03:15;;;;;;;2.08;1.38;;;20.30;54.30;;;;;;5035162;28;20029;-67
2022/01/19 10:06:03;;;;;;;2.75;1.48;;;20.40;54.10;;;;;;5035187;28;20096;-67
2022/01/19 10:08:29;;;;;;;3.08;1.77;;;20.30;54.10;;;;;;5043446;28;20044;-66
2022/01/19 10:19:25;;;;;;;1.63;1.52;;;20.30;54.20;;;;;;5053724;28;20036;-66
2022/01/19 10:21:58;;;;;;;2.03;1.52;;;20.30;54.30;;;;;;5037121;28;20434;-66
2022/01/19 10:24:46;;;;;;;1.60;1.30;;;20.30;54.10;;;;;;5053288;28;20425;-66
2022/01/19 10:27:31;;;;;;;1.77;1.35;;;20.30;54.00;;;;;;5052838;28;20099;-66
2022/01/19 10:29:56;;;;;;;1.77;1.40;;;20.30;54.00;;;;;;5054765;28;20017;-66
2022/01/19 10:32:23;;;;;;;2.10;1.40;;;20.30;54.20;;;;;;5054169;28;20032;-66
2022/01/19 10:34:50;;;;;;;3.17;1.48;;;20.30;55.20;;;;;;5054556;28;20021;-67
2022/01/19 10:37:24;;;;;;;2.22;1.40;;;20.30;54.20;;;;;;5054283;28;20025;-66
2022/01/19 10:39:50;;;;;;;1.23;1.10;;;20.30;54.10;;;;;;5036749;28;20028;-66
2022/01/19 10:42:17;;;;;;;2.40;1.40;;;20.30;54.10;;;;;;5032674;28;20033;-66
2022/01/19 10:44:45;;;;;;;1.50;1.40;;;20.30;54.10;;;;;;5033009;28;20076;-66
2022/01/19 10:47:11;;;;;;;1.60;1.17;;;20.30;54.10;;;;;;5032659;28;20584;-66
2022/01/19 10:49:53;;;;;;;1.67;1.25;;;20.30;54.00;;;;;;5032943;28;20025;-66
2022/01/19 10:52:28;;;;;;;2.55;1.25;;;20.30;54.00;;;;;;5033010;28;20018;-66
2022/01/19 10:54:54;;;;;;;4.30;1.40;;;20.30;54.00;;;;;;5034182;28;20057;-66
2022/01/19 10:57:20;;;;;;;1.95;1.45;;;20.20;54.10;;;;;;5032611;28;20079;-66
2022/01/19 10:59:45;;;;;;;1.77;1.50;;;20.20;54.00;;;;;;5033035;28;20017;-66
2022/01/19 11:02:12;;;;;;;1.85;1.30;;;20.20;54.00;;;;;;5032884;28;20522;-66
2022/01/19 11:04:39;;;;;;;1.23;1.10;;;20.20;53.90;;;;;;5033952;28;20025;-66
2022/01/19 11:07:05;;;;;;;1.95;1.40;;;20.30;54.00;;;;;;5032536;28;20026;-66
2022/01/19 11:09:33;;;;;;;1.88;1.27;;;20.20;53.90;;;;;;5050716;28;20018;-66
2022/01/19 11:12:05;;;;;;;0.98;0.90;;;20.30;53.90;;;;;;5036429;28;20025;-66
2022/01/19 11:14:30;;;;;;;2.22;1.13;;;20.20;53.90;;;;;;5036753;28;20104;-67
2022/01/19 11:16:56;;;;;;;1.15;1.00;;;20.20;53.90;;;;;;5052558;28;20100;-66
2022/01/19 11:19:22;;;;;;;2.55;1.25;;;20.20;53.90;;;;;;5035668;28;20045;-66
2022/01/19 11:22:04;;;;;;;1.20;1.05;;;20.30;53.90;;;;;;5053701;28;20061;-66
2022/01/19 11:24:49;;;;;;;1.83;1.00;;;20.30;53.90;;;;;;5036998;28;20032;-66
2022/01/19 11:27:15;;;;;;;1.92;1.05;;;20.30;53.80;;;;;;5036082;28;20106;-67
2022/01/19 11:29:40;;;;;;;1.20;1.10;;;20.20;53.80;;;;;;5052397;28;20562;-66
2022/01/19 11:32:17;;;;;;;2.25;1.20;;;20.20;53.90;;;;;;5053289;28;20025;-66
2022/01/19 11:34:49;;;;;;;1.13;1.02;;;20.30;53.80;;;;;;5052292;28;20052;-66
2022/01/19 11:37:16;;;;;;;1.35;1.02;;;20.20;53.80;;;;;;5052106;28;20509;-66
2022/01/19 11:40:23;;;;;;;1.08;0.98;;;20.20;53.80;;;;;;5020088;28;20052;-66
2022/01/19 11:42:48;;;;;;;1.17;0.80;;;20.30;53.60;;;;;;5031126;28;20033;-66
2022/01/19 11:45:35;;;;;;;1.00;0.90;;;20.20;53.80;;;;;;5030883;28;20037;-66
2022/01/19 11:48:14;;;;;;;1.13;1.02;;;20.30;53.60;;;;;;5014430;28;20439;-67
2022/01/19 11:50:40;;;;;;;0.73;0.73;;;20.20;53.70;;;;;;5014923;28;20595;-66
2022/01/19 11:53:09;;;;;;;1.05;0.90;;;20.20;53.80;;;;;;5014307;28;20100;-66
2022/01/19 11:55:35;;;;;;;2.45;1.08;;;20.20;54.80;;;;;;5030840;28;20052;-66
2022/01/19 11:58:14;;;;;;;2.85;1.00;;;20.20;53.70;;;;;;5014222;28;20607;-66
2022/01/19 12:00:41;;;;;;;1.20;1.10;;;20.20;53.60;;;;;;5013287;28;20032;-66
2022/01/19 12:03:38;;;;;;;1.30;1.20;;;20.20;53.70;;;;;;5030734;28;20038;-66
2022/01/19 12:06:03;;;;;;;0.93;0.90;;;20.30;53.50;;;;;;4998894;28;20033;-66
2022/01/19 12:08:31;;;;;;;1.00;0.90;;;20.20;53.70;;;;;;5038850;28;20029;-66
2022/01/19 12:11:17;;;;;;;0.95;0.90;;;20.20;53.60;;;;;;5034043;28;20040;-67
2022/01/19 12:16:28;;;;;;;1.05;0.90;;;20.20;53.60;;;;;;5037126;28;20114;-66
2022/01/19 12:18:58;;;;;;;1.50;1.00;;;20.20;53.60;;;;;;5052611;28;20021;-66
2022/01/19 12:21:39;;;;;;;0.98;0.80;;;20.20;53.60;;;;;;5051021;28;20017;-66
2022/01/19 12:24:30;;;;;;;0.98;0.80;;;20.20;53.50;;;;;;5052011;28;20028;-66
2022/01/19 12:27:25;;;;;;;0.98;0.80;;;20.20;53.70;;;;;;5051105;28;20025;-67
2022/01/19 12:30:10;;;;;;;0.98;0.90;;;20.20;53.50;;;;;;5052248;28;20033;-66
2022/01/19 12:32:49;;;;;;;1.13;0.90;;;20.20;53.30;;;;;;5051116;28;20020;-66
2022/01/19 12:35:34;;;;;;;1.33;0.90;;;20.20;53.50;;;;;;5035763;28;20097;-66
2022/01/19 12:38:00;;;;;;;0.93;0.90;;;20.20;53.40;;;;;;5033954;28;20060;-66
2022/01/19 12:40:40;;;;;;;1.20;1.10;;;20.20;53.50;;;;;;5031041;28;20444;-66
2022/01/19 12:43:28;;;;;;;1.17;0.85;;;20.20;53.30;;;;;;5032419;28;20040;-66
2022/01/19 12:45:53;;;;;;;0.95;0.80;;;20.20;53.40;;;;;;5031302;28;20079;-66
2022/01/19 12:48:33;;;;;;;1.23;1.10;;;20.20;53.40;;;;;;5031023;28;20025;-66
2022/01/19 12:50:59;;;;;;;0.80;0.80;;;20.20;53.20;;;;;;5031191;28;20048;-66
2022/01/19 12:53:25;;;;;;;0.98;0.90;;;20.20;53.40;;;;;;5030870;28;20500;-66
2022/01/19 12:55:53;;;;;;;0.80;0.73;;;20.20;53.30;;;;;;5031180;28;20025;-66
2022/01/19 12:58:39;;;;;;;0.82;0.82;;;20.20;53.30;;;;;;5030809;28;20021;-66
2022/01/19 13:01:09;;;;;;;0.88;0.88;;;20.20;54.30;;;;;;5031997;28;20037;-66
2022/01/19 13:03:40;;;;;;;0.93;0.90;;;20.20;53.30;;;;;;5031621;28;20026;-67
2022/01/19 13:06:08;;;;;;;1.10;1.00;;;20.20;53.20;;;;;;5030649;28;20025;-66
2022/01/19 13:08:43;;;;;;;1.20;1.10;;;20.20;53.20;;;;;;5040028;28;20028;-66
2022/01/19 13:11:23;;;;;;;1.30;0.80;;;20.20;53.10;;;;;;5052432;28;20471;-66
2022/01/19 13:13:56;;;;;;;0.98;0.82;;;20.20;53.10;;;;;;5038728;28;20120;-66
2022/01/19 13:16:37;;;;;;;0.70;0.70;;;20.20;53.20;;;;;;5054852;28;20037;-67
2022/01/19 13:19:05;;;;;;;0.80;0.80;;;20.20;53.00;;;;;;5054730;28;20078;-66
2022/01/19 13:21:32;;;;;;;0.85;0.85;;;20.20;53.10;;;;;;5037894;28;20111;-66
2022/01/19 13:24:05;;;;;;;0.98;0.88;;;20.20;53.10;;;;;;5038155;28;20095;-66
2022/01/19 13:26:48;;;;;;;0.90;0.90;;;20.20;53.10;;;;;;5054788;28;20078;-67
2022/01/19 13:29:38;;;;;;;1.08;0.98;;;20.30;52.90;;;;;;5054604;28;20037;-66
2022/01/19 13:32:06;;;;;;;0.93;0.82;;;20.30;52.90;;;;;;5054492;28;20092;-66
2022/01/19 13:34:58;;;;;;;0.77;0.70;;;20.20;53.00;;;;;;5053978;28;20525;-66
2022/01/19 13:37:29;;;;;;;0.70;0.70;;;20.20;52.80;;;;;;5039086;28;20025;-67
2022/01/19 13:40:11;;;;;;;0.85;0.80;;;20.20;54.10;;;;;;5021587;28;20036;-67
2022/01/19 13:42:41;;;;;;;0.70;0.70;;;20.20;52.90;;;;;;5034362;28;20155;-66
2022/01/19 13:50:50;;;;;;;0.60;0.60;;;20.20;53.00;;;;;;5033946;28;20479;-67
2022/01/19 13:53:26;;;;;;;0.70;0.70;;;20.20;53.00;;;;;;5034199;28;20574;-66
2022/01/19 13:55:52;;;;;;;0.70;0.70;;;20.20;53.00;;;;;;5034542;28;20033;-67
2022/01/19 13:58:18;;;;;;;0.70;0.70;;;20.20;53.00;;;;;;5033865;28;20434;-66
2022/01/19 14:00:54;;;;;;;0.80;0.80;;;20.20;53.00;;;;;;5034025;28;20088;-67
2022/01/19 14:03:21;;;;;;;0.50;0.50;;;20.30;52.90;;;;;;5033980;28;20518;-66
2022/01/19 14:05:48;;;;;;;0.80;0.80;;;20.20;52.90;;;;;;5033595;28;20037;-66
2022/01/19 14:08:31;;;;;;;0.70;0.70;;;20.20;52.90;;;;;;5040410;28;20384;-67
2022/01/19 14:10:57;;;;;;;0.80;0.70;;;20.30;52.80;;;;;;5038027;28;20021;-66
2022/01/19 14:13:31;;;;;;;0.60;0.60;;;20.20;52.90;;;;;;5036927;28;20032;-67
2022/01/19 14:15:58;;;;;;;1.13;0.70;;;20.20;52.80;;;;;;5037854;28;20017;-66
2022/01/19 14:18:24;;;;;;;0.60;0.60;;;20.20;52.90;;;;;;5053284;28;20024;-67
2022/01/19 14:21:08;;;;;;;0.65;0.63;;;20.20;52.80;;;;;;5053525;28;20036;-66
2022/01/19 14:23:34;;;;;;;0.73;0.73;;;20.30;52.60;;;;;;5053528;28;20045;-66
2022/01/19 14:26:07;;;;;;;0.60;0.60;;;20.30;52.80;;;;;;5053525;28;20056;-66
2022/01/19 14:28:33;;;;;;;0.60;0.60;;;20.30;52.70;;;;;;5036812;28;20045;-67
2022/01/19 14:31:06;;;;;;;0.50;0.50;;;20.20;52.80;;;;;;5053592;28;20459;-66
2022/01/19 14:33:31;;;;;;;;;;;20.20;52.70;;;;;;5054494;28;20111;-66